DW4338 Bergen NO current weather conditions

sailwx.info

Wind from 178 at 19 knots gusting 35

Air temperature 9.4° C
Dewpoint 5.4° C

Last reported at 2015-May-29 13:47 UTC.
Time now 2015-May-29 14:14 UTC

Location: N 60°31' E 004°54'.
View on Google Maps.

See reports from other nearby stations

  
Tides and Currents Weather Stations Pressure Air Temp Water Temp Dewpoint Dewpoint Depression Visibility Wind Speed Wind Dir Waves Ship Positions
date/time (UTC)wind fromknots sea level pressurealtimeterstation pressurevisibilityair tempwater tempwave heightnotes
2015-May-29 13:47 178 19 gusting 35 9.4
2015-May-29 13:32 126 12 gusting 30 9.4
2015-May-29 13:17 124 14 gusting 34 9.4
2015-May-29 13:02 119 13 gusting 37 9.4
2015-May-29 12:47 131 13 gusting 33 9.4
2015-May-29 12:32 163 13 gusting 33 9.4
2015-May-29 12:17 169 14 gusting 29 9.4
2015-May-29 12:01 128 14 gusting 37 9.4
2015-May-29 11:46 153 16 gusting 34 9.4
2015-May-29 11:34 142 12 gusting 28 9.4
2015-May-29 11:16 132 15 gusting 37 9.4
2015-May-29 11:01 164 10 gusting 33 8.9
2015-May-29 10:48 164 17 gusting 35 8.9
2015-May-29 10:31 151 16 gusting 33 8.9
2015-May-29 10:16 146 10 gusting 26 8.3
2015-May-29 10:01 148 14 gusting 26 7.8
2015-May-29 09:46 150 14 gusting 36 6.7
2015-May-29 09:31 165 19 gusting 39 7.8
2015-May-29 09:18 148 15 gusting 38 8.9
2015-May-29 08:46 160 15 gusting 33 8.3
2015-May-29 08:31 160 21 gusting 42 7.8
2015-May-29 08:18 171 12 gusting 21 7.8
2015-May-29 07:46 197 13 gusting 27 7.8
2015-May-29 07:31 198 7 gusting 26 8.3
2015-May-29 07:18 201 9 gusting 26 7.8
2015-May-29 07:01 202 10 gusting 26 7.8
2015-May-29 06:46 217 12 gusting 26 7.8
2015-May-29 06:31 221 6 gusting 22 7.2
2015-May-29 06:16 221 6 gusting 23 7.2
2015-May-29 06:01 221 12 gusting 26 7.2
2015-May-29 05:46 231 7 gusting 21 7.2
2015-May-29 05:31 234 7 gusting 16 6.7
2015-May-29 05:16 234 5 gusting 15 6.7
2015-May-29 05:01 234 5 gusting 20 6.7
2015-May-29 04:46 234 9 gusting 17 6.7
2015-May-29 04:31 234 11 gusting 19 6.7
2015-May-29 04:16 234 11 gusting 21 6.7
2015-May-29 03:46 234 12 gusting 22 6.1
2015-May-29 03:31 234 8 gusting 21 6.1
2015-May-29 03:16 234 10 gusting 19 6.1
2015-May-29 03:01 234 5 gusting 20 6.1
2015-May-29 02:46 234 10 gusting 20 6.1
2015-May-29 02:31 234 7 gusting 20 6.1
2015-May-29 02:16 234 6 gusting 21 6.1
2015-May-29 02:01 234 3 gusting 15 6.1
2015-May-29 01:46 234 10 gusting 29 6.1
2015-May-29 01:30 234 15 gusting 30 6.1
2015-May-29 01:15 232 17 gusting 28 6.7
2015-May-29 01:00 231 12 gusting 22 6.7
2015-May-29 00:45 231 3 gusting 10 6.7
2015-May-29 00:30 231 8 gusting 30 6.7
2015-May-29 00:15 232 7 gusting 22 6.7
2015-May-29 00:00 232 9 gusting 22 6.7
2015-May-28 23:45 232 8 gusting 26 6.7
2015-May-28 23:30 232 10 gusting 26 6.7
2015-May-28 23:15 232 7 gusting 26 6.7
2015-May-28 23:00 231 9 gusting 26 6.7
2015-May-28 22:45 232 13 gusting 26 6.7
2015-May-28 22:30 232 15 gusting 30 6.7
2015-May-28 22:15 232 16 gusting 29 6.7
2015-May-28 22:00 229 17 gusting 31 6.7
2015-May-28 21:45 228 14 gusting 30 7.2
2015-May-28 21:30 229 13 gusting 30 7.2
2015-May-28 21:15 229 8 gusting 23 7.2
2015-May-28 21:00 228 9 gusting 31 6.7
2015-May-28 20:45 229 15 gusting 36 7.2
2015-May-28 20:30 228 16 gusting 31 7.2
2015-May-28 20:15 228 14 gusting 33 7.2
2015-May-28 20:00 228 21 gusting 32 7.2
2015-May-28 19:45 224 12 gusting 33 7.8
2015-May-28 19:30 223 15 gusting 28 7.2
2015-May-28 19:15 223 12 gusting 25 7.2
2015-May-28 19:00 223 14 gusting 34 7.2
2015-May-28 18:45 221 9 gusting 18 7.2
2015-May-28 18:30 221 6 gusting 30 7.2
2015-May-28 18:15 220 14 gusting 29 7.2
2015-May-28 18:00 220 11 gusting 33 7.2
2015-May-28 17:45 196 21 gusting 37 7.8
2015-May-28 17:30 171 9 gusting 19 7.8
2015-May-28 17:15 171 11 gusting 23 7.8
2015-May-28 17:00 171 13 gusting 28 7.2
2015-May-28 16:45 171 16 gusting 32 7.8
2015-May-28 16:30 165 16 gusting 39 7.8
2015-May-28 16:15 144 15 gusting 33 7.8
2015-May-28 16:00 136 15 gusting 26 7.8
2015-May-28 15:45 136 10 gusting 30 7.8
2015-May-28 15:30 136 16 gusting 29 7.8
2015-May-28 15:15 136 13 gusting 26 7.2
2015-May-28 15:00 136 9 gusting 28 7.2
2015-May-28 14:45 130 14 gusting 35 7.2
2015-May-28 14:30 103 13 gusting 31 7.8
2015-May-28 14:15 099 12 gusting 27 7.8
2015-May-28 14:00 098 16 gusting 28 7.8
2015-May-28 13:45 098 12 gusting 23 7.8
2015-May-28 13:30 098 10 gusting 22 7.8
2015-May-28 13:15 098 8 gusting 21 7.8
2015-May-28 13:00 098 7 gusting 28 7.8
2015-May-28 12:45 098 13 gusting 31 7.8
2015-May-28 12:30 096 4 gusting 34 8.3
2015-May-28 12:15 094 6 gusting 26 8.3
2015-May-28 12:00 094 12 gusting 34 8.9
2015-May-28 11:45 093 15 gusting 34 8.9
2015-May-28 11:30 092 16 gusting 33 8.3
2015-May-28 11:15 088 17 gusting 33 8.9
2015-May-28 11:00 092 19 gusting 33 8.9
2015-May-28 10:44 091 14 gusting 27 8.9
2015-May-28 10:29 090 13 gusting 27 8.3
2015-May-28 10:14 089 16 gusting 26 8.3
2015-May-28 09:59 090 11 gusting 21 8.3
2015-May-28 09:44 090 9 gusting 28 7.8
2015-May-28 09:29 090 13 gusting 22 7.8
2015-May-28 09:14 090 9 gusting 16 7.8
2015-May-28 08:59 090 8 gusting 17 7.8
2015-May-28 08:44 090 7 gusting 21 7.8
2015-May-28 08:29 090 16 gusting 26 7.8
2015-May-28 08:14 090 13 gusting 29 7.8
2015-May-28 07:59 091 16 gusting 27 7.8
2015-May-28 07:44 090 18 gusting 28 7.8
2015-May-28 07:29 092 15 gusting 32 7.2
2015-May-28 07:14 103 16 gusting 29 7.2
2015-May-28 06:59 103 15 gusting 27 7.2
2015-May-28 06:44 103 13 gusting 19 6.7
2015-May-28 06:29 103 13 gusting 21 6.7
2015-May-28 06:14 104 14 gusting 32 6.7
2015-May-28 05:59 106 16 gusting 28 6.7
2015-May-28 05:44 107 17 gusting 30 6.7
2015-May-28 05:29 109 10 gusting 22 6.7
2015-May-28 05:14 109 13 gusting 22 6.1
2015-May-28 04:59 109 19 gusting 25 6.7
2015-May-28 04:44 111 13 gusting 25 6.7
2015-May-28 04:28 111 13 gusting 31 6.7
2015-May-28 04:13 113 7 gusting 20 6.7
2015-May-28 03:58 113 4 gusting 14 6.7
2015-May-28 03:43 113 6 gusting 18 6.7
2015-May-28 03:28 113 8 gusting 19 6.7
2015-May-28 03:13 113 12 gusting 20 6.7
2015-May-28 02:58 113 11 gusting 20 6.7
2015-May-28 02:43 113 12 gusting 21 6.7
2015-May-28 02:28 113 14 gusting 25 6.7
2015-May-28 02:13 113 13 gusting 25 6.7
2015-May-28 01:58 113 8 gusting 23 6.7
2015-May-28 01:43 113 12 gusting 32 6.7
2015-May-28 01:28 119 11 gusting 22 6.7
2015-May-28 01:13 119 15 gusting 38 6.7
2015-May-28 00:58 148 13 gusting 26 6.7
2015-May-28 00:43 151 13 gusting 24 6.7
2015-May-28 00:28 153 11 gusting 26 6.7
2015-May-28 00:13 155 18 gusting 27 7.2
2015-May-27 23:58 157 11 gusting 25 7.2
2015-May-27 23:43 157 8 gusting 20 6.7
2015-May-27 23:28 157 13 gusting 30 6.7
2015-May-27 23:13 186 9 gusting 16 7.2
2015-May-27 22:58 186 9 gusting 25 7.2
2015-May-27 22:42 203 6 gusting 17 7.2
2015-May-27 22:27 203 7 gusting 16 7.2
2015-May-27 22:12 203 10 gusting 22 7.2
2015-May-27 21:57 203 9 gusting 19 7.2
2015-May-27 21:42 203 13 gusting 20 7.8
2015-May-27 21:27 203 6 gusting 17 7.2
2015-May-27 21:12 204 3 gusting 14 7.2
2015-May-27 20:57 203 6 gusting 19 7.2
2015-May-27 20:42 207 10 gusting 22 7.8
2015-May-27 20:27 206 14 gusting 23 7.8
2015-May-27 20:12 206 8 gusting 22 7.8
2015-May-27 19:57 207 6 gusting 19 7.2
2015-May-27 19:42 207 10 gusting 22 7.8
2015-May-27 19:27 207 9 gusting 26 7.8
2015-May-27 19:12 207 8 gusting 19 7.8
2015-May-27 18:57 207 2 gusting 18 7.8
2015-May-27 18:42 207 8 gusting 24 7.8
2015-May-27 18:27 208 8 gusting 21 7.8
2015-May-27 18:12 208 11 gusting 27 7.8
2015-May-27 17:57 208 13 gusting 29 7.8
2015-May-27 17:42 209 11 gusting 32 7.8
2015-May-27 17:27 208 17 gusting 31 7.8
2015-May-27 17:12 211 16 gusting 29 7.8
2015-May-27 16:57 211 17 gusting 33 7.8
2015-May-27 16:42 211 18 gusting 32 7.8
2015-May-27 16:27 211 12 gusting 32 7.8
2015-May-27 16:12 209 10 gusting 32 8.3
2015-May-27 15:57 209 14 gusting 27 8.3
2015-May-27 15:42 209 7 gusting 19 8.3
2015-May-27 15:27 209 13 gusting 29 8.9
2015-May-27 15:12 211 6 gusting 24 8.9
2015-May-27 14:57 211 16 gusting 27 8.9
2015-May-27 14:42 211 13 gusting 25 9.4
2015-May-27 14:27 238 11 gusting 25 10.0
2015-May-27 14:12 238 13 gusting 27 9.4